createdAt,value
2017-06-26T00:00:16.254Z,99.90
2017-06-26T00:02:44.551Z,99.90
2017-06-26T00:05:12.882Z,99.90
2017-06-26T00:07:41.183Z,99.90
2017-06-26T00:10:09.962Z,99.90
2017-06-26T00:12:38.309Z,99.90
2017-06-26T00:15:06.603Z,99.90
2017-06-26T00:17:34.956Z,99.90
2017-06-26T00:20:03.242Z,99.90
2017-06-26T00:22:32.311Z,99.90
2017-06-26T00:25:00.640Z,99.90
2017-06-26T00:27:28.935Z,99.90
2017-06-26T00:29:57.263Z,99.90
2017-06-26T00:32:26.321Z,99.90
2017-06-26T00:34:54.629Z,99.90
2017-06-26T00:37:23.695Z,99.90
2017-06-26T00:39:51.989Z,99.90
2017-06-26T00:42:20.289Z,99.90
2017-06-26T00:44:49.391Z,99.90
2017-06-26T00:47:17.726Z,99.90
2017-06-26T00:49:46.002Z,99.90
2017-06-26T00:52:14.340Z,99.90
2017-06-26T00:54:42.639Z,99.90
2017-06-26T00:57:11.726Z,99.90
2017-06-26T00:59:40.417Z,99.90
2017-06-26T01:02:08.718Z,99.90
2017-06-26T01:04:37.451Z,99.90
2017-06-26T01:07:05.783Z,99.90
2017-06-26T01:09:34.086Z,99.90
2017-06-26T01:12:02.939Z,99.90
2017-06-26T01:14:31.231Z,99.90
2017-06-26T01:16:59.569Z,99.90
2017-06-26T01:19:27.882Z,99.90
2017-06-26T01:21:56.564Z,99.90
2017-06-26T01:24:24.877Z,99.90
2017-06-26T01:26:53.182Z,99.90
2017-06-26T01:29:21.914Z,99.90
2017-06-26T01:31:50.202Z,99.90
2017-06-26T01:34:18.521Z,99.90
2017-06-26T01:36:46.811Z,99.90
2017-06-26T01:39:15.126Z,99.90
2017-06-26T01:41:44.207Z,99.90
2017-06-26T01:44:13.303Z,99.90
2017-06-26T01:46:41.648Z,99.90
2017-06-26T01:49:09.943Z,99.90
2017-06-26T01:51:38.262Z,99.90
2017-06-26T01:54:06.555Z,99.90
2017-06-26T01:56:34.887Z,99.90
2017-06-26T01:59:03.946Z,99.90
2017-06-26T02:01:35.286Z,99.90
2017-06-26T02:04:03.578Z,99.90
2017-06-26T02:06:31.897Z,99.90
2017-06-26T02:09:00.194Z,99.90
2017-06-26T02:11:28.522Z,99.90
2017-06-26T02:13:56.826Z,99.90
2017-06-26T02:16:25.165Z,99.90
2017-06-26T02:18:53.478Z,99.90
2017-06-26T02:21:21.776Z,99.90
2017-06-26T02:23:50.108Z,99.90
2017-06-26T02:26:18.404Z,99.90
2017-06-26T02:28:47.086Z,99.90
2017-06-26T02:31:15.381Z,99.90
2017-06-26T02:33:43.704Z,99.90
2017-06-26T02:36:12.006Z,99.90
2017-06-26T02:38:40.656Z,99.90
2017-06-26T02:41:08.983Z,99.90
2017-06-26T02:43:37.282Z,99.90
2017-06-26T02:46:05.626Z,99.90
2017-06-26T02:48:34.311Z,99.90
2017-06-26T02:51:03.390Z,99.90
2017-06-26T02:53:32.478Z,99.90
2017-06-26T02:56:02.279Z,99.90
2017-06-26T02:58:30.611Z,99.90
2017-06-26T03:00:58.898Z,99.90
2017-06-26T03:06:02.864Z,99.90
2017-06-26T03:08:31.191Z,99.90
2017-06-26T03:10:59.522Z,99.90
2017-06-26T03:13:27.844Z,99.90
2017-06-26T03:15:56.163Z,99.90
2017-06-26T03:18:24.477Z,99.90
2017-06-26T03:20:52.814Z,99.90
2017-06-26T03:23:21.519Z,99.90
2017-06-26T03:25:50.654Z,99.90
2017-06-26T03:28:18.941Z,99.90
2017-06-26T03:30:47.658Z,99.90
2017-06-26T03:33:16.005Z,99.90
2017-06-26T03:35:44.331Z,99.90
2017-06-26T03:38:13.423Z,99.90
2017-06-26T03:40:42.503Z,99.90
2017-06-26T03:43:10.837Z,99.90
2017-06-26T03:45:39.122Z,99.90
2017-06-26T03:48:07.454Z,99.90
2017-06-26T03:50:37.353Z,99.90
2017-06-26T03:53:05.652Z,99.90
2017-06-26T03:55:34.756Z,99.90
2017-06-26T03:58:03.442Z,99.90
2017-06-26T04:00:31.797Z,99.90
2017-06-26T04:03:00.093Z,99.90
2017-06-26T04:05:28.389Z,99.90
2017-06-26T04:07:56.700Z,99.90
2017-06-26T04:10:25.378Z,99.90
2017-06-26T04:12:53.763Z,99.90
2017-06-26T04:15:22.444Z,99.90
2017-06-26T04:17:50.778Z,99.90
2017-06-26T04:20:19.074Z,99.90
2017-06-26T04:22:47.395Z,99.90
2017-06-26T04:25:15.710Z,99.90
2017-06-26T04:27:44.012Z,99.90
2017-06-26T04:30:12.486Z,99.90
2017-06-26T04:32:41.546Z,99.90
2017-06-26T04:35:09.878Z,99.90
2017-06-26T04:37:38.178Z,99.90
2017-06-26T04:40:06.913Z,99.90
2017-06-26T04:42:35.981Z,99.90
2017-06-26T04:45:04.324Z,99.90
2017-06-26T04:47:32.636Z,99.90
2017-06-26T04:50:00.938Z,99.90
2017-06-26T04:52:29.260Z,99.90
2017-06-26T04:54:58.326Z,99.90
2017-06-26T04:57:26.658Z,99.90
2017-06-26T04:59:55.342Z,99.90
2017-06-26T05:02:23.693Z,99.90
2017-06-26T05:04:51.983Z,99.90
2017-06-26T05:07:21.091Z,99.90
2017-06-26T05:09:49.391Z,99.90
2017-06-26T05:12:17.720Z,99.90
2017-06-26T05:14:46.134Z,99.90
2017-06-26T05:17:14.871Z,99.90
2017-06-26T05:19:43.186Z,99.90
2017-06-26T05:22:11.503Z,99.90
2017-06-26T05:24:39.831Z,99.90
2017-06-26T05:27:08.144Z,99.90
2017-06-26T05:29:36.747Z,99.90
2017-06-26T05:32:05.071Z,99.90
2017-06-26T05:34:33.412Z,99.90
2017-06-26T05:37:01.707Z,99.90
2017-06-26T05:39:30.806Z,99.90
2017-06-26T05:41:59.540Z,99.90
2017-06-26T05:44:28.642Z,99.90
2017-06-26T05:46:56.946Z,99.90
2017-06-26T05:49:25.310Z,99.90
2017-06-26T05:51:53.627Z,99.90
2017-06-26T05:54:22.055Z,99.90
2017-06-26T05:56:50.354Z,99.90
2017-06-26T05:59:18.712Z,99.90
2017-06-26T06:01:47.095Z,99.90
2017-06-26T06:04:15.406Z,99.90
2017-06-26T06:06:44.494Z,99.90
2017-06-26T06:09:12.819Z,99.90
2017-06-26T06:11:41.177Z,99.90
2017-06-26T06:14:09.491Z,99.90
2017-06-26T06:16:37.828Z,99.90
2017-06-26T06:19:06.145Z,99.90
2017-06-26T06:21:34.471Z,99.90
2017-06-26T06:24:02.835Z,99.90
2017-06-26T06:26:31.146Z,99.90
2017-06-26T06:28:59.488Z,99.90
2017-06-26T06:31:28.561Z,99.90
2017-06-26T06:33:56.925Z,99.90
2017-06-26T06:36:25.207Z,99.90
2017-06-26T06:41:28.478Z,99.90
2017-06-26T06:43:56.890Z,99.90
2017-06-26T06:46:25.264Z,99.90
2017-06-26T06:48:53.554Z,99.90
2017-06-26T06:51:21.898Z,99.90
2017-06-26T06:53:50.208Z,99.90
2017-06-26T06:56:18.529Z,99.90
2017-06-26T06:58:46.866Z,99.90
2017-06-26T07:01:15.570Z,99.90
2017-06-26T07:03:44.260Z,99.90
2017-06-26T07:06:12.594Z,99.90
2017-06-26T07:08:40.892Z,99.90
2017-06-26T07:11:09.278Z,99.90
2017-06-26T07:13:38.383Z,99.90
2017-06-26T07:16:06.702Z,99.90
2017-06-26T07:18:35.007Z,99.90
2017-06-26T07:21:03.332Z,99.90
2017-06-26T07:23:31.649Z,99.90
2017-06-26T07:25:59.984Z,99.90
2017-06-26T07:28:28.276Z,99.90
2017-06-26T07:30:56.604Z,99.90
2017-06-26T07:33:24.886Z,99.90
2017-06-26T07:35:53.647Z,99.90
2017-06-26T07:38:21.956Z,99.90
2017-06-26T07:40:50.292Z,99.90
2017-06-26T07:43:18.607Z,99.90
2017-06-26T07:45:46.947Z,99.90
2017-06-26T07:48:15.255Z,99.90
2017-06-26T07:50:44.318Z,99.90
2017-06-26T07:53:12.669Z,99.90
2017-06-26T07:55:41.071Z,99.90
2017-06-26T07:58:10.150Z,99.90
2017-06-26T08:00:38.464Z,99.90
2017-06-26T08:03:06.842Z,99.90
2017-06-26T08:05:35.155Z,99.90
2017-06-26T08:08:03.482Z,99.90
2017-06-26T08:10:32.199Z,99.90
2017-06-26T08:13:00.716Z,99.90
2017-06-26T08:15:29.053Z,99.90
2017-06-26T08:17:57.425Z,99.90
2017-06-26T08:20:26.589Z,99.90
2017-06-26T08:22:54.895Z,99.90
2017-06-26T08:25:23.976Z,99.90
2017-06-26T08:27:52.293Z,99.90
2017-06-26T08:30:20.607Z,99.90
2017-06-26T08:32:48.910Z,99.90
2017-06-26T08:35:18.007Z,99.90
2017-06-26T08:37:47.066Z,99.90
2017-06-26T08:40:15.399Z,99.90
2017-06-26T08:42:43.710Z,99.90
2017-06-26T08:45:12.037Z,99.90
2017-06-26T08:47:41.201Z,99.90
2017-06-26T08:50:09.522Z,99.90
2017-06-26T08:52:37.815Z,99.90
2017-06-26T08:55:06.141Z,99.90
2017-06-26T08:57:34.463Z,99.90
2017-06-26T09:00:02.758Z,99.90
2017-06-26T09:02:31.068Z,99.90
2017-06-26T09:04:59.376Z,99.90
2017-06-26T09:07:27.696Z,99.90
2017-06-26T09:09:56.017Z,99.90
2017-06-26T09:12:25.066Z,99.90
2017-06-26T09:14:53.383Z,99.90
2017-06-26T09:17:21.706Z,99.90
2017-06-26T09:19:50.818Z,99.90
2017-06-26T09:22:19.152Z,99.90
2017-06-26T09:24:47.455Z,99.90
2017-06-26T09:27:15.802Z,99.90
2017-06-26T09:29:44.861Z,99.90
2017-06-26T09:32:13.163Z,99.90
2017-06-26T09:34:42.257Z,99.90
2017-06-26T09:37:11.333Z,99.90
2017-06-26T09:39:39.643Z,99.90
2017-06-26T09:42:08.362Z,99.90
2017-06-26T09:44:36.710Z,99.90
2017-06-26T09:47:05.011Z,99.90
2017-06-26T09:49:33.318Z,99.90
2017-06-26T09:52:01.857Z,99.90
2017-06-26T09:54:30.268Z,99.90
2017-06-26T09:56:58.566Z,99.90
2017-06-26T09:59:27.437Z,99.90
2017-06-26T10:01:55.788Z,99.90
2017-06-26T10:04:24.112Z,99.90
2017-06-26T10:06:53.265Z,99.90
2017-06-26T10:09:21.572Z,99.90
2017-06-26T10:11:50.002Z,99.90
2017-06-26T10:14:18.305Z,99.90
2017-06-26T10:16:46.659Z,99.90
2017-06-26T10:19:14.978Z,99.90
2017-06-26T10:21:43.277Z,99.90
2017-06-26T10:24:12.224Z,99.90
2017-06-26T10:26:41.286Z,99.90
2017-06-26T10:29:09.610Z,99.90
2017-06-26T10:31:37.938Z,99.90
2017-06-26T10:34:06.245Z,99.90
2017-06-26T10:36:34.561Z,99.90
2017-06-26T10:39:03.699Z,99.90
2017-06-26T10:41:32.058Z,99.90
2017-06-26T10:44:00.320Z,99.90
2017-06-26T10:46:29.031Z,99.90
2017-06-26T10:48:57.735Z,99.90
2017-06-26T10:51:26.132Z,99.90
2017-06-26T10:53:54.508Z,99.90
2017-06-26T10:56:22.817Z,99.90
2017-06-26T10:58:51.131Z,99.90
2017-06-26T11:01:19.457Z,99.90
2017-06-26T11:03:48.549Z,99.90
2017-06-26T11:06:16.879Z,99.90
2017-06-26T11:08:45.593Z,99.90
2017-06-26T11:11:13.934Z,99.90
2017-06-26T11:13:42.453Z,99.90
2017-06-26T11:16:10.767Z,99.90
2017-06-26T11:18:39.859Z,99.90
2017-06-26T11:21:08.948Z,99.90
2017-06-26T11:23:38.059Z,99.90
2017-06-26T11:26:06.421Z,99.90
2017-06-26T11:28:35.511Z,99.90
2017-06-26T11:31:03.824Z,99.90
2017-06-26T11:33:32.267Z,99.90
2017-06-26T11:36:01.334Z,99.90
2017-06-26T11:38:29.651Z,99.90
2017-06-26T11:40:57.943Z,99.90
2017-06-26T11:43:26.700Z,99.90
2017-06-26T11:45:55.403Z,99.90
2017-06-26T11:48:23.712Z,99.90
2017-06-26T11:50:52.040Z,99.90
2017-06-26T11:53:20.424Z,99.90
2017-06-26T11:55:49.632Z,99.90
2017-06-26T11:58:17.938Z,99.90
2017-06-26T12:00:46.248Z,99.90
2017-06-26T12:03:14.566Z,99.90
2017-06-26T12:05:42.860Z,99.90
2017-06-26T12:08:11.187Z,99.90
2017-06-26T12:10:39.507Z,99.90
2017-06-26T12:13:07.815Z,99.90
2017-06-26T12:15:36.153Z,99.90
2017-06-26T12:18:04.461Z,99.90
2017-06-26T12:20:32.812Z,99.90
2017-06-26T12:23:01.108Z,99.90
2017-06-26T12:25:29.443Z,99.90
2017-06-26T12:27:57.760Z,99.90
2017-06-26T12:30:26.124Z,99.90
2017-06-26T12:32:54.426Z,99.90
2017-06-26T12:35:22.727Z,99.90
2017-06-26T12:37:51.053Z,99.90
2017-06-26T12:40:19.465Z,97.20
2017-06-26T12:42:47.802Z,98.80
2017-06-26T12:45:16.112Z,99.10
2017-06-26T12:47:44.461Z,99.90
2017-06-26T12:50:12.783Z,99.90
2017-06-26T12:52:41.103Z,99.90
2017-06-26T12:55:09.419Z,99.90
2017-06-26T12:57:37.755Z,99.90
2017-06-26T13:00:06.068Z,99.90
2017-06-26T13:02:34.401Z,99.90
2017-06-26T13:05:02.714Z,99.50
2017-06-26T13:07:31.043Z,99.90
2017-06-26T13:09:59.367Z,99.90
2017-06-26T13:12:27.805Z,99.90
2017-06-26T13:14:56.867Z,99.90
2017-06-26T13:17:25.176Z,99.90
2017-06-26T13:19:53.511Z,99.90
2017-06-26T13:22:21.814Z,96.50
2017-06-26T13:24:50.915Z,96.40
2017-06-26T13:27:19.236Z,97.40
2017-06-26T13:29:47.530Z,94.00
2017-06-26T13:32:15.861Z,93.70
2017-06-26T13:34:44.167Z,94.60
2017-06-26T13:37:12.487Z,95.90
2017-06-26T13:39:40.867Z,94.70
2017-06-26T13:42:09.951Z,92.10
2017-06-26T13:44:38.334Z,92.00
2017-06-26T13:47:07.399Z,91.40
2017-06-26T13:49:35.749Z,91.20
2017-06-26T13:52:04.050Z,91.20
2017-06-26T13:54:32.384Z,90.10
2017-06-26T13:57:00.676Z,86.20
2017-06-26T13:59:29.004Z,88.80
2017-06-26T14:01:57.717Z,91.90
2017-06-26T14:04:26.042Z,92.10
2017-06-26T14:06:54.340Z,92.50
2017-06-26T14:09:23.450Z,92.60
2017-06-26T14:11:52.515Z,90.50
2017-06-26T14:14:20.907Z,90.20
2017-06-26T14:16:49.268Z,91.10
2017-06-26T14:19:17.609Z,91.40
2017-06-26T14:21:45.916Z,92.20
2017-06-26T14:24:14.237Z,93.40
2017-06-26T14:26:42.564Z,90.10
2017-06-26T14:29:10.940Z,90.20
2017-06-26T14:31:39.413Z,91.20
2017-06-26T14:34:07.862Z,92.80
2017-06-26T14:36:36.160Z,92.30
2017-06-26T14:39:04.852Z,92.50
2017-06-26T14:41:33.600Z,94.70
2017-06-26T14:44:01.918Z,94.20
2017-06-26T14:46:30.272Z,94.40
2017-06-26T14:48:58.578Z,94.30
2017-06-26T14:51:27.712Z,94.00
2017-06-26T14:53:56.137Z,94.50
2017-06-26T14:56:25.212Z,93.10
2017-06-26T14:58:54.575Z,93.20
2017-06-26T15:01:24.404Z,93.00
2017-06-26T15:03:53.526Z,94.30
2017-06-26T15:06:21.862Z,95.20
2017-06-26T15:08:50.243Z,94.70
2017-06-26T15:11:19.368Z,94.90
2017-06-26T15:13:47.795Z,93.60
2017-06-26T15:16:16.108Z,94.70
2017-06-26T15:18:44.422Z,95.20
2017-06-26T15:21:12.826Z,94.40
2017-06-26T15:23:41.116Z,93.40
2017-06-26T15:26:09.476Z,93.80
2017-06-26T15:28:37.798Z,93.10
2017-06-26T15:31:07.736Z,94.10
2017-06-26T15:33:36.036Z,97.50
2017-06-26T15:36:04.429Z,94.30
2017-06-26T15:38:32.729Z,94.60
2017-06-26T15:41:01.800Z,93.80
2017-06-26T15:43:30.522Z,91.80
2017-06-26T15:45:58.848Z,91.90
2017-06-26T15:48:27.186Z,92.10
2017-06-26T15:50:55.501Z,94.40
2017-06-26T15:53:26.087Z,93.90
2017-06-26T15:55:54.448Z,94.80
2017-06-26T15:58:23.665Z,93.70
2017-06-26T16:00:52.211Z,93.40
2017-06-26T16:03:20.564Z,93.00
2017-06-26T16:05:48.935Z,96.40
2017-06-26T16:08:17.211Z,92.70
2017-06-26T16:10:45.531Z,90.90
2017-06-26T16:13:14.639Z,93.10
2017-06-26T16:15:43.057Z,95.70
2017-06-26T16:18:11.353Z,96.70
2017-06-26T16:20:39.670Z,94.30
2017-06-26T16:23:07.968Z,95.60
2017-06-26T16:25:36.289Z,92.10
2017-06-26T16:28:04.696Z,92.90
2017-06-26T16:30:33.510Z,93.10
2017-06-26T16:33:02.147Z,92.60
2017-06-26T16:35:31.095Z,94.60
2017-06-26T16:37:59.464Z,95.00
2017-06-26T16:40:28.988Z,95.30
2017-06-26T16:42:57.508Z,93.30
2017-06-26T16:45:26.596Z,96.50
2017-06-26T16:47:55.607Z,95.00
2017-06-26T16:50:24.797Z,97.00
2017-06-26T16:52:53.089Z,95.70
2017-06-26T16:55:21.820Z,93.80
2017-06-26T16:57:50.134Z,95.20
2017-06-26T17:00:18.994Z,94.10
2017-06-26T17:02:47.291Z,94.20
2017-06-26T17:05:15.733Z,95.20
2017-06-26T17:07:44.016Z,94.20
2017-06-26T17:10:12.699Z,92.90
2017-06-26T17:12:43.161Z,93.10
2017-06-26T17:15:11.454Z,92.10
2017-06-26T17:17:40.510Z,93.40
2017-06-26T17:20:08.856Z,93.70
2017-06-26T17:22:38.188Z,93.60
2017-06-26T17:25:07.870Z,94.40
2017-06-26T17:27:36.219Z,95.70
2017-06-26T17:30:04.525Z,95.00
2017-06-26T17:32:33.288Z,94.20
2017-06-26T17:35:01.624Z,95.10
2017-06-26T17:37:29.980Z,95.30
2017-06-26T17:39:59.100Z,95.30
2017-06-26T17:42:27.433Z,97.30
2017-06-26T17:44:55.861Z,97.10
2017-06-26T17:47:24.195Z,96.00
2017-06-26T17:49:53.414Z,96.50
2017-06-26T17:52:22.310Z,96.30
2017-06-26T17:54:50.631Z,97.20
2017-06-26T17:57:19.752Z,98.20
2017-06-26T17:59:48.818Z,97.20
2017-06-26T18:02:17.615Z,96.10
2017-06-26T18:04:46.054Z,96.50
2017-06-26T18:07:14.755Z,97.50
2017-06-26T18:09:43.836Z,98.60
2017-06-26T18:12:12.170Z,98.10
2017-06-26T18:14:40.480Z,98.10
2017-06-26T18:17:10.414Z,97.90
2017-06-26T18:19:39.472Z,99.60
2017-06-26T18:22:07.772Z,98.70
2017-06-26T18:24:36.598Z,98.70
2017-06-26T18:27:04.902Z,98.40
2017-06-26T18:29:33.246Z,98.80
2017-06-26T18:32:01.578Z,99.90
2017-06-26T18:34:30.634Z,99.90
2017-06-26T18:36:58.968Z,99.90
2017-06-26T18:39:27.670Z,99.90
2017-06-26T18:41:56.436Z,99.90
2017-06-26T18:44:25.501Z,99.90
2017-06-26T18:46:53.795Z,99.90
2017-06-26T18:49:22.899Z,99.90
2017-06-26T18:51:51.210Z,99.90
2017-06-26T18:54:19.892Z,99.90
2017-06-26T18:56:48.203Z,99.90
2017-06-26T18:59:16.539Z,99.90
2017-06-26T19:01:45.785Z,99.90
2017-06-26T19:04:14.097Z,99.90
2017-06-26T19:06:43.151Z,99.90
2017-06-26T19:09:11.482Z,99.90
2017-06-26T19:11:39.829Z,99.90
2017-06-26T19:14:08.153Z,99.90
2017-06-26T19:16:36.457Z,99.90
2017-06-26T19:19:05.206Z,99.90
2017-06-26T19:21:33.524Z,99.90
2017-06-26T19:24:02.594Z,99.90
2017-06-26T19:26:30.915Z,99.90
2017-06-26T19:28:59.229Z,99.90
2017-06-26T19:31:27.661Z,99.90
2017-06-26T19:33:55.968Z,99.90
2017-06-26T19:36:24.297Z,99.90
2017-06-26T19:38:52.630Z,99.90
2017-06-26T19:41:20.952Z,99.90
2017-06-26T19:43:49.273Z,99.90
2017-06-26T19:46:18.339Z,99.90
2017-06-26T19:48:47.069Z,99.90
2017-06-26T19:51:15.770Z,99.90
2017-06-26T19:53:44.105Z,99.90
2017-06-26T19:56:13.186Z,99.90
2017-06-26T19:58:41.518Z,99.90
2017-06-26T20:01:09.818Z,99.90
2017-06-26T20:03:38.136Z,99.90
2017-06-26T20:06:06.567Z,99.90
2017-06-26T20:08:35.702Z,99.90
2017-06-26T20:11:04.160Z,99.90
2017-06-26T20:13:32.448Z,99.90
2017-06-26T20:16:02.327Z,99.90
2017-06-26T20:18:31.444Z,99.90
2017-06-26T20:20:59.835Z,99.90
2017-06-26T20:23:28.131Z,99.90
2017-06-26T20:25:56.486Z,99.90
2017-06-26T20:28:24.825Z,99.90
2017-06-26T20:30:53.140Z,99.90
2017-06-26T20:33:21.446Z,99.90
2017-06-26T20:35:49.783Z,99.90
2017-06-26T20:38:18.162Z,99.90
2017-06-26T20:40:46.550Z,99.90
2017-06-26T20:43:14.954Z,99.90
2017-06-26T20:45:44.034Z,99.90
2017-06-26T20:48:12.379Z,99.90
2017-06-26T20:50:40.709Z,99.90
2017-06-26T20:53:09.412Z,99.90
2017-06-26T20:55:37.829Z,99.90
2017-06-26T20:58:06.207Z,99.90
2017-06-26T21:00:34.547Z,99.90
2017-06-26T21:03:02.836Z,99.90
2017-06-26T21:05:31.186Z,99.90
2017-06-26T21:07:59.596Z,99.90
2017-06-26T21:10:27.897Z,99.90
2017-06-26T21:12:56.225Z,99.90
2017-06-26T21:15:24.527Z,99.90
2017-06-26T21:17:52.858Z,99.90
2017-06-26T21:20:21.914Z,99.90
2017-06-26T21:22:50.290Z,99.90
2017-06-26T21:25:18.579Z,99.90
2017-06-26T21:27:46.900Z,99.90
2017-06-26T21:30:15.228Z,99.90
2017-06-26T21:32:43.606Z,99.90
2017-06-26T21:35:11.933Z,99.90
2017-06-26T21:37:40.226Z,99.90
2017-06-26T21:40:08.567Z,99.90
2017-06-26T21:42:37.724Z,99.90
2017-06-26T21:45:06.085Z,99.90
2017-06-26T21:47:34.389Z,99.90
2017-06-26T21:50:02.892Z,99.90
2017-06-26T21:52:31.986Z,99.90
2017-06-26T21:55:00.283Z,99.90
2017-06-26T21:57:28.616Z,99.90
2017-06-26T21:59:56.918Z,99.90
2017-06-26T22:02:26.024Z,99.90
2017-06-26T22:04:54.320Z,99.90
2017-06-26T22:07:22.634Z,99.90
2017-06-26T22:09:50.942Z,99.90
2017-06-26T22:12:19.525Z,99.90
2017-06-26T22:14:48.591Z,99.90
2017-06-26T22:17:17.660Z,99.90
2017-06-26T22:19:46.006Z,99.90
2017-06-26T22:22:14.313Z,99.90
2017-06-26T22:24:42.617Z,99.90
2017-06-26T22:27:11.472Z,99.90
2017-06-26T22:29:39.874Z,99.90
2017-06-26T22:32:08.251Z,99.90
2017-06-26T22:34:36.594Z,99.90
2017-06-26T22:37:04.952Z,99.90
2017-06-26T22:39:34.055Z,99.90
2017-06-26T22:42:02.335Z,99.90
2017-06-26T22:44:31.500Z,99.90
2017-06-26T22:47:00.595Z,99.90
2017-06-26T22:49:29.043Z,99.90
2017-06-26T22:51:57.832Z,99.90
2017-06-26T22:54:26.521Z,99.90
2017-06-26T22:56:56.349Z,99.90
2017-06-26T22:59:25.430Z,99.90
2017-06-26T23:01:53.758Z,99.90
2017-06-26T23:04:22.500Z,99.90
2017-06-26T23:06:50.794Z,99.90
2017-06-26T23:09:19.586Z,99.90
2017-06-26T23:11:48.686Z,99.90
2017-06-26T23:14:17.068Z,99.90
2017-06-26T23:16:45.377Z,99.90
2017-06-26T23:19:13.675Z,99.90
2017-06-26T23:21:42.015Z,99.90
2017-06-26T23:24:10.709Z,99.90
2017-06-26T23:26:39.013Z,99.90
2017-06-26T23:29:07.725Z,99.90
2017-06-26T23:31:36.031Z,99.90
2017-06-26T23:34:04.766Z,99.90
2017-06-26T23:36:33.130Z,99.90
2017-06-26T23:39:01.473Z,99.90
2017-06-26T23:41:30.514Z,99.90
2017-06-26T23:43:58.814Z,99.90
2017-06-26T23:46:27.908Z,99.90
2017-06-26T23:48:56.715Z,99.90
2017-06-26T23:51:25.442Z,99.90
2017-06-26T23:53:53.748Z,99.90
2017-06-26T23:56:22.077Z,99.90
2017-06-26T23:58:50.480Z,99.90
